Time;durP1;ratioP1;P1;durP2;ratioP2;P2;SDS_P1;SDS_P2;PMS_P1;PMS_P2;Temp;Humidity;BMP_temperature;BMP_pressure;BME280_temperature;BME280_humidity;BME280_pressure;Samples;Min_cycle;Max_cycle;Signal;HPM_P1;HPM_P2
2021/09/03 00:04:47;;;;;;;;;;;;;;;14.71;74.00;101965.59;15761560;28;20072;-59
2021/09/03 00:12:22;;;;;;;1999.90;999.90;;;;;;;14.37;75.17;101952.31;15747323;28;19920;-58
2021/09/03 00:19:55;;;;;;;1999.90;999.90;;;;;;;14.41;74.10;101947.72;15747007;28;20041;-56
2021/09/03 00:27:29;;;;;;;1999.90;999.90;;;;;;;14.28;74.69;101940.28;15745262;28;20123;-56
2021/09/03 00:35:01;;;;;;;1999.90;999.90;;;;;;;14.33;74.38;101936.47;15760409;28;20558;-58
2021/09/03 00:42:35;;;;;;;1999.90;999.90;;;;;;;14.21;74.57;101928.72;15807085;28;20501;-55
2021/09/03 00:50:10;;;;;;;1999.90;999.90;;;;;;;14.11;74.76;101927.03;15807310;28;20450;-59
2021/09/03 00:57:43;;;;;;;1999.90;999.90;;;;;;;14.08;74.82;101929.69;15806773;28;20048;-59
2021/09/03 01:05:16;;;;;;;1999.90;999.90;;;;;;;14.02;75.16;101917.78;15805778;28;20047;-58
2021/09/03 01:12:50;;;;;;;1999.90;999.90;;;;;;;14.04;74.70;101914.63;15807293;28;20064;-60
2021/09/03 01:20:46;;;;;;;1999.90;999.90;;;;;;;13.98;74.36;101908.38;15806598;28;20513;-57
2021/09/03 01:28:20;;;;;;;1999.90;999.90;;;;;;;13.88;74.70;101911.47;15806173;28;20052;-59
2021/09/03 01:35:52;;;;;;;1999.90;999.90;;;;;;;13.81;74.05;101894.28;15784542;28;20448;-59
2021/09/03 01:43:26;;;;;;;1999.90;999.90;;;;;;;13.73;74.63;101903.50;15724492;28;20040;-62
2021/09/03 01:50:59;;;;;;;1999.90;999.90;;;;;;;13.68;74.64;101889.66;15742710;28;20071;-59
2021/09/03 01:58:32;;;;;;;1999.90;999.90;;;;;;;13.63;74.13;101884.19;15742134;28;20044;-60
2021/09/03 02:06:05;;;;;;;1999.90;999.90;;;;;;;13.47;74.61;101886.63;15742258;28;20421;-55
2021/09/03 02:13:39;;;;;;;1999.90;999.90;;;;;;;13.38;74.71;101872.56;15740576;28;20048;-58
2021/09/03 02:21:13;;;;;;;1999.90;999.90;;;;;;;13.41;74.58;101865.47;15740115;28;20048;-55
2021/09/03 02:28:47;;;;;;;1999.90;999.90;;;;;;;13.30;74.90;101856.53;15740280;28;20406;-57
2021/09/03 02:36:22;;;;;;;1999.90;999.90;;;;;;;13.12;75.62;101851.97;15764776;28;20044;-61
2021/09/03 02:43:56;;;;;;;1999.90;999.90;;;;;;;13.18;74.88;101856.28;15804297;28;20051;-58
2021/09/03 02:51:28;;;;;;;1999.90;999.90;;;;;;;13.17;74.38;101846.22;15801478;28;20473;-57
2021/09/03 02:59:02;;;;;;;1999.90;999.90;;;;;;;12.95;75.45;101833.94;15783870;28;20120;-58
2021/09/03 03:06:34;;;;;;;1999.90;999.90;;;;;;;13.05;74.36;101826.41;15804676;28;20050;-58
2021/09/03 03:14:11;;;;;;;1999.90;999.90;;;;;;;12.89;75.28;101810.00;15803450;28;20044;-62
2021/09/03 03:21:43;;;;;;;1999.90;999.90;;;;;;;12.87;75.02;101809.50;15799980;28;20043;-60
2021/09/03 03:29:17;;;;;;;1999.90;999.90;;;;;;;12.89;75.22;101806.38;15791102;28;20065;-59
2021/09/03 03:36:50;;;;;;;1999.90;999.90;;;;;;;12.79;74.93;101793.47;15783082;28;20044;-61
2021/09/03 03:44:26;;;;;;;1999.90;999.90;;;;;;;12.79;74.59;101785.06;15747494;28;20068;-58
2021/09/03 03:52:01;;;;;;;1999.90;999.90;;;;;;;12.77;74.56;101786.53;15748249;28;20051;-55
2021/09/03 03:59:35;;;;;;;1999.90;999.90;;;;;;;12.68;75.20;101778.09;15748179;28;20032;-63
2021/09/03 04:07:07;;;;;;;;;;;;;;;12.79;75.09;101779.47;15752311;28;20036;-57
2021/09/03 04:14:41;;;;;;;1999.90;999.90;;;;;;;12.62;75.21;101765.41;15748804;28;20327;-58
2021/09/03 04:22:14;;;;;;;1999.90;999.90;;;;;;;12.59;75.22;101763.22;15749159;28;20048;-59
2021/09/03 04:29:47;;;;;;;1999.90;999.90;;;;;;;12.60;74.97;101748.88;15750546;28;20053;-56
2021/09/03 04:37:19;;;;;;;1999.90;999.90;;;;;;;12.71;75.13;101746.63;15780552;28;20127;-60
2021/09/03 04:44:53;;;;;;;1999.90;999.90;;;;;;;12.84;74.83;101744.91;15792129;28;20106;-61
2021/09/03 04:52:25;;;;;;;;;;;;;;;13.16;75.17;101750.13;15808891;28;20044;-55
2021/09/03 04:59:59;;;;;;;1999.90;999.90;;;;;;;13.27;76.09;101731.88;15808554;28;20381;-55
2021/09/03 05:07:31;;;;;;;;;;;;;;;13.38;77.22;101728.75;15805939;28;20081;-57
2021/09/03 05:15:09;;;;;;;1999.90;999.90;;;;;;;13.60;78.29;101739.81;15807974;28;19920;-60
2021/09/03 05:22:41;;;;;;;1999.90;999.90;;;;;;;13.79;78.29;101728.28;15805616;28;20055;-58
2021/09/03 05:30:15;;;;;;;1999.90;999.90;;;;;;;14.04;78.92;101733.03;15805924;28;20468;-61
2021/09/03 05:37:47;;;;;;;1999.90;999.90;;;;;;;14.25;79.63;101738.78;15767505;28;20048;-59
2021/09/03 05:45:21;;;;;;;1999.90;999.90;;;;;;;14.21;81.38;101732.19;15742723;28;20094;-60
2021/09/03 05:52:53;;;;;;;1999.90;999.90;;;;;;;14.42;81.03;101735.94;15741986;28;20048;-60
2021/09/03 06:00:27;;;;;;;1999.90;999.90;;;;;;;14.60;81.37;101727.50;15740343;28;20090;-59
2021/09/03 06:08:00;;;;;;;1999.90;999.90;;;;;;;14.57;81.87;101722.53;15740813;28;20516;-58
2021/09/03 06:15:34;;;;;;;1999.90;999.90;;;;;;;14.77;81.11;101721.81;15740637;28;20049;-62
2021/09/03 06:23:06;;;;;;;1999.90;999.90;;;;;;;15.26;81.29;101710.97;15741303;28;20033;-60
2021/09/03 06:30:40;;;;;;;1999.90;999.90;;;;;;;15.82;80.28;101701.09;15739477;28;20528;-59
2021/09/03 06:38:13;;;;;;;1999.90;999.90;;;;;;;16.11;79.32;101703.00;15781262;28;20048;-61
2021/09/03 06:45:49;;;;;;;1999.90;999.90;;;;;;;16.86;77.43;101719.69;15784193;28;20107;-60
2021/09/03 06:53:21;;;;;;;1999.90;999.90;;;;;;;17.12;76.65;101710.09;15801015;28;20051;-60
2021/09/03 07:00:55;;;;;;;1999.90;999.90;;;;;;;18.01;74.22;101701.50;15800639;28;20131;-61
2021/09/03 07:08:27;;;;;;;1999.90;999.90;;;;;;;18.83;72.96;101710.22;15800878;28;20055;-60
2021/09/03 07:16:01;;;;;;;1999.90;999.90;;;;;;;19.27;71.68;101696.72;15801569;28;20406;-61
2021/09/03 07:23:33;;;;;;;1999.90;999.90;;;;;;;19.75;71.25;101693.78;15801109;28;20050;-59
2021/09/03 07:31:07;;;;;;;1999.90;999.90;;;;;;;20.75;69.76;101683.19;15801236;28;20132;-59
2021/09/03 07:38:39;;;;;;;1999.90;999.90;;;;;;;20.68;67.51;101685.06;15755437;28;20033;-61
2021/09/03 07:46:13;;;;;;;1999.90;999.90;;;;;;;20.92;65.88;101681.00;15736956;28;20135;-62
2021/09/03 07:53:45;;;;;;;1999.90;999.90;;;;;;;21.03;66.33;101679.97;15737524;28;20044;-60
2021/09/03 08:01:19;;;;;;;1999.90;999.90;;;;;;;21.57;63.84;101681.63;15737110;28;20126;-59
2021/09/03 08:08:51;;;;;;;1999.90;999.90;;;;;;;21.84;63.26;101687.22;15736721;28;20135;-61
2021/09/03 08:16:25;;;;;;;1999.90;999.90;;;;;;;21.94;63.23;101691.41;15745734;28;20094;-60
2021/09/03 08:24:01;;;;;;;1999.90;999.90;;;;;;;22.50;60.30;101688.38;15747622;28;20045;-60
2021/09/03 08:31:34;;;;;;;;;;;;;;;22.35;60.56;101680.94;15747957;28;20452;-62
2021/09/03 08:39:06;;;;;;;1999.90;999.90;;;;;;;22.37;61.96;101695.56;15795744;28;19939;-59
2021/09/03 08:46:41;;;;;;;1999.90;999.90;;;;;;;22.00;60.90;101685.00;15807620;28;20094;-60
2021/09/03 08:54:13;;;;;;;1999.90;999.90;;;;;;;23.10;58.42;101673.88;15809273;28;20431;-60
2021/09/03 09:02:09;;;;;;;1999.90;999.90;;;;;;;24.25;56.68;101663.81;15809080;28;20409;-59
2021/09/03 09:09:42;;;;;;;1999.90;999.90;;;;;;;24.70;55.37;101665.97;15807723;28;20302;-58
2021/09/03 09:17:28;;;;;;;1999.90;999.90;;;;;;;24.50;57.08;101656.16;15806015;28;20132;-61
2021/09/03 09:25:19;;;;;;;1999.90;999.90;;;;;;;25.01;52.24;101657.75;15805049;28;20040;-59
2021/09/03 09:33:15;;;;;;;1999.90;999.90;;;;;;;24.84;54.08;101644.34;15788524;28;20044;-60
2021/09/03 09:40:51;;;;;;;1999.90;999.90;;;;;;;24.76;53.76;101635.78;15743902;28;20043;-60
2021/09/03 09:48:24;;;;;;;1999.90;999.90;;;;;;;25.52;53.61;101631.53;15743262;28;20060;-61
2021/09/03 09:55:57;;;;;;;1999.90;999.90;;;;;;;24.99;52.10;101623.09;15743185;28;20090;-61
2021/09/03 10:03:33;;;;;;;1999.90;999.90;;;;;;;24.80;52.35;101618.63;15742436;28;20044;-60
2021/09/03 10:11:05;;;;;;;1999.90;999.90;;;;;;;26.12;49.69;101610.44;15740750;28;20083;-60
2021/09/03 10:18:43;;;;;;;1999.90;999.90;;;;;;;26.57;49.20;101599.06;15741789;28;20551;-60
2021/09/03 10:26:17;;;;;;;1999.90;999.90;;;;;;;26.12;49.16;101604.72;15723469;28;20057;-61
2021/09/03 10:33:51;;;;;;;1999.90;999.90;;;;;;;27.60;46.52;101585.69;15746204;28;20119;-59
2021/09/03 10:41:49;;;;;;;1999.90;999.90;;;;;;;27.52;45.96;101575.56;15803124;28;20068;-59
2021/09/03 10:49:28;;;;;;;1999.90;999.90;;;;;;;26.80;47.63;101569.03;15804023;28;20048;-61
2021/09/03 10:57:03;;;;;;;1999.90;999.90;;;;;;;26.85;46.49;101548.50;15810309;28;20056;-59
2021/09/03 11:04:45;;;;;;;1999.90;999.90;;;;;;;28.05;42.88;101542.47;15802702;28;20105;-58
2021/09/03 11:12:21;;;;;;;1999.90;999.90;;;;;;;27.63;45.45;101544.72;15803921;28;20563;-62
2021/09/03 11:20:00;;;;;;;1999.90;999.90;;;;;;;27.86;44.11;101546.84;15804044;28;20048;-59
2021/09/03 11:27:33;;;;;;;1999.90;999.90;;;;;;;28.42;42.47;101547.19;15801949;28;20097;-61
2021/09/03 11:35:12;;;;;;;1999.90;999.90;;;;;;;28.55;43.05;101539.56;15787235;28;20040;-60
2021/09/03 11:42:46;;;;;;;1999.90;999.90;;;;;;;28.46;42.38;101539.34;15738048;28;20101;-61
2021/09/03 11:50:28;;;;;;;1999.90;999.90;;;;;;;29.85;42.42;101533.66;15746350;28;20477;-58
2021/09/03 11:58:05;;;;;;;1999.90;999.90;;;;;;;29.44;41.45;101537.03;15750091;28;20098;-60
2021/09/03 12:05:46;;;;;;;1999.90;999.90;;;;;;;29.90;37.54;101524.47;15749013;28;20049;-60
2021/09/03 12:13:20;;;;;;;1999.90;999.90;;;;;;;30.92;37.66;101523.06;15748191;28;20047;-57
2021/09/03 12:20:59;;;;;;;1999.90;999.90;;;;;;;29.98;37.95;101516.47;15747546;28;20132;-60
2021/09/03 12:28:31;;;;;;;1999.90;999.90;;;;;;;31.38;36.20;101506.53;15748245;28;20084;-60
2021/09/03 12:36:09;;;;;;;1999.90;999.90;;;;;;;31.17;35.66;101498.50;15771876;28;20043;-61
2021/09/03 12:43:42;;;;;;;1999.90;999.90;;;;;;;34.67;32.98;101498.81;15810489;28;20044;-60
2021/09/03 12:51:21;;;;;;;1999.90;999.90;;;;;;;33.10;33.25;101481.28;15810362;28;20140;-59
2021/09/03 12:58:54;;;;;;;1999.90;999.90;;;;;;;37.52;28.87;101496.03;15808497;28;20101;-59
2021/09/03 13:06:28;;;;;;;1999.90;999.90;;;;;;;36.20;29.58;101484.88;15808568;28;20040;-61
2021/09/03 13:14:01;;;;;;;1999.90;999.90;;;;;;;38.27;26.80;101480.03;15808757;28;20047;-60
2021/09/03 13:21:35;;;;;;;1999.90;999.90;;;;;;;36.18;28.21;101465.06;15807866;28;20516;-59
2021/09/03 13:29:08;;;;;;;1999.90;999.90;;;;;;;35.29;28.60;101469.44;15807720;28;20044;-61
2021/09/03 13:36:42;;;;;;;1999.90;999.90;;;;;;;33.89;32.33;101447.19;15778421;28;20049;-59
2021/09/03 13:44:15;;;;;;;1999.90;999.90;;;;;;;31.59;33.96;101442.41;15742587;28;20040;-58
2021/09/03 13:51:48;;;;;;;1999.90;999.90;;;;;;;30.25;36.63;101427.84;15743565;28;20048;-60
2021/09/03 13:59:21;;;;;;;1999.90;999.90;;;;;;;28.82;41.73;101418.06;15741525;28;20040;-61
2021/09/03 14:06:54;;;;;;;1999.90;999.90;;;;;;;27.61;41.24;101409.56;15742088;28;20045;-60
2021/09/03 14:14:27;;;;;;;1999.90;999.90;;;;;;;28.04;42.66;101408.91;15742116;28;20406;-62
2021/09/03 14:22:01;;;;;;;1999.90;999.90;;;;;;;27.34;41.99;101398.13;15741396;28;20051;-61
2021/09/03 14:29:33;;;;;;;1999.90;999.90;;;;;;;27.22;43.07;101387.28;15739878;28;20064;-60
2021/09/03 14:37:07;;;;;;;1999.90;999.90;;;;;;;27.09;45.25;101383.34;15773181;28;20036;-60
2021/09/03 14:44:39;;;;;;;1999.90;999.90;;;;;;;26.79;42.93;101375.59;15802862;28;20040;-58
2021/09/03 14:52:13;;;;;;;;;;;;;;;26.90;43.20;101379.13;15786746;28;20413;-59
2021/09/03 14:59:45;;;;;;;1999.90;999.90;;;;;;;27.06;42.93;101376.44;15802014;28;19920;-60
2021/09/03 15:07:19;;;;;;;1999.90;999.90;;;;;;;26.80;43.19;101368.63;15801911;28;20040;-60
2021/09/03 15:14:52;;;;;;;1999.90;999.90;;;;;;;26.65;44.76;101363.06;15801866;28;20039;-58
2021/09/03 15:22:26;;;;;;;1999.90;999.90;;;;;;;26.66;45.95;101356.09;15803952;28;20118;-58
2021/09/03 15:29:59;;;;;;;1999.90;999.90;;;;;;;26.31;46.40;101357.31;15814486;28;20044;-60
2021/09/03 15:37:33;;;;;;;;;;;;;;;25.94;45.26;101340.16;15779131;28;20048;-60
2021/09/03 15:45:06;;;;;;;1999.90;999.90;;;;;;;25.58;45.78;101323.31;15750675;28;19927;-59
2021/09/03 15:52:40;;;;;;;1999.90;999.90;;;;;;;25.54;46.37;101325.41;15749136;28;20417;-61
2021/09/03 16:00:14;;;;;;;1999.90;999.90;;;;;;;25.68;48.70;101324.47;15749506;28;20512;-60
2021/09/03 16:07:47;;;;;;;1999.90;999.90;;;;;;;25.43;47.31;101302.66;15749284;28;20051;-59
2021/09/03 16:15:20;;;;;;;1999.90;999.90;;;;;;;25.34;48.74;101299.47;15791094;28;20032;-61
2021/09/03 16:22:53;;;;;;;;;;;;;;;25.39;48.85;101307.56;15797024;28;20522;-59
2021/09/03 16:30:26;;;;;;;1999.90;999.90;;;;;;;25.08;49.46;101303.72;15811413;28;19965;-60
2021/09/03 16:38:01;;;;;;;1999.90;999.90;;;;;;;24.86;51.97;101293.66;15809770;28;20048;-60
2021/09/03 16:45:33;;;;;;;1999.90;999.90;;;;;;;24.79;52.46;101303.06;15808703;28;20036;-59
2021/09/03 16:53:07;;;;;;;1999.90;999.90;;;;;;;24.59;52.58;101294.19;15807501;28;20436;-58
2021/09/03 17:00:40;;;;;;;1999.90;999.90;;;;;;;24.41;52.61;101293.50;15784409;28;20087;-60
2021/09/03 17:08:14;;;;;;;1999.90;999.90;;;;;;;24.22;53.81;101289.06;15788102;28;20044;-61
2021/09/03 17:15:48;;;;;;;1999.90;999.90;;;;;;;23.94;54.24;101292.81;15771593;28;20045;-58
2021/09/03 17:23:22;;;;;;;1999.90;999.90;;;;;;;23.64;55.81;101283.91;15799589;28;20443;-62
2021/09/03 17:30:54;;;;;;;1999.90;999.90;;;;;;;23.41;56.17;101284.31;15757286;28;20033;-59
2021/09/03 17:38:28;;;;;;;;;;;;;;;23.23;56.63;101284.31;15759844;28;20032;-62
2021/09/03 17:46:01;;;;;;;1999.90;999.90;;;;;;;22.84;57.03;101287.94;15802448;28;19955;-61
2021/09/03 17:53:35;;;;;;;1999.90;999.90;;;;;;;22.51;57.81;101286.19;15754275;28;20045;-60
2021/09/03 18:01:07;;;;;;;1999.90;999.90;;;;;;;22.27;58.53;101281.22;15790515;28;20048;-57
2021/09/03 18:08:41;;;;;;;1999.90;999.90;;;;;;;22.04;58.58;101295.69;15794026;28;20040;-60
2021/09/03 18:16:14;;;;;;;1999.90;999.90;;;;;;;21.79;59.38;101295.56;15754859;28;20041;-59
2021/09/03 18:23:47;;;;;;;1999.90;999.90;;;;;;;21.62;59.55;101302.75;15768097;28;20043;-60
2021/09/03 18:31:20;;;;;;;1999.90;999.90;;;;;;;21.32;60.20;101308.59;15782040;28;20536;-60
2021/09/03 18:38:54;;;;;;;1999.90;999.90;;;;;;;21.03;61.12;101316.78;15809831;28;20779;-61
2021/09/03 18:46:26;;;;;;;1999.90;999.90;;;;;;;20.71;62.52;101313.63;15815804;28;20090;-61
2021/09/03 18:54:00;;;;;;;1999.90;999.90;;;;;;;20.54;63.27;101319.09;15812565;28;20111;-61
2021/09/03 19:01:32;;;;;;;1999.90;999.90;;;;;;;20.22;64.20;101312.97;15820295;28;20098;-58
2021/09/03 19:09:08;;;;;;;1999.90;999.90;;;;;;;20.04;64.88;101315.59;15817816;28;20501;-57
2021/09/03 19:16:42;;;;;;;1999.90;999.90;;;;;;;19.80;65.46;101326.19;15831331;28;20055;-60
2021/09/03 19:24:16;;;;;;;1999.90;999.90;;;;;;;19.60;66.00;101319.81;15814559;28;20040;-59
2021/09/03 19:31:48;;;;;;;1999.90;999.90;;;;;;;19.35;66.72;101327.00;15813222;28;20494;-59
2021/09/03 19:39:22;;;;;;;1999.90;999.90;;;;;;;19.15;67.27;101336.75;15774687;28;20049;-60
2021/09/03 19:46:55;;;;;;;1999.90;999.90;;;;;;;18.99;67.89;101329.22;15804128;28;20036;-59
2021/09/03 19:54:31;;;;;;;1999.90;999.90;;;;;;;18.95;67.94;101333.97;15825342;28;20033;-62
2021/09/03 20:02:03;;;;;;;1999.90;999.90;;;;;;;18.81;68.45;101330.88;15804948;28;20424;-61
2021/09/03 20:09:37;;;;;;;1999.90;999.90;;;;;;;18.61;69.12;101313.09;15844069;28;20039;-62
2021/09/03 20:17:09;;;;;;;1999.90;999.90;;;;;;;18.51;69.22;101325.00;15842935;28;20044;-61
2021/09/03 20:24:43;;;;;;;1999.90;999.90;;;;;;;18.50;69.05;101316.91;15853952;28;20051;-61
2021/09/03 20:32:15;;;;;;;1999.90;999.90;;;;;;;18.21;69.36;101324.78;15846314;28;20047;-62
2021/09/03 20:39:48;;;;;;;1999.90;999.90;;;;;;;18.02;70.08;101325.56;15828018;28;20469;-60
2021/09/03 20:47:21;;;;;;;1999.90;999.90;;;;;;;17.88;70.07;101316.78;15841417;28;20033;-59
2021/09/03 20:54:54;;;;;;;1999.90;999.90;;;;;;;17.76;70.63;101299.97;15849299;28;20404;-59
2021/09/03 21:02:27;;;;;;;1999.90;999.90;;;;;;;17.62;70.69;101319.38;15818071;28;20043;-60
2021/09/03 21:10:02;;;;;;;1999.90;999.90;;;;;;;17.55;71.02;101311.53;15837716;28;20051;-61
2021/09/03 21:17:35;;;;;;;1999.90;999.90;;;;;;;17.52;71.13;101320.75;15832939;28;20576;-60
2021/09/03 21:25:09;;;;;;;;;;;;;;;17.43;71.27;101320.94;15815564;28;20039;-59
2021/09/03 21:32:42;;;;;;;1999.90;999.90;;;;;;;17.18;71.89;101333.56;15808824;28;19920;-61
2021/09/03 21:40:16;;;;;;;1999.90;999.90;;;;;;;17.13;71.95;101336.66;15840611;28;20054;-60
2021/09/03 21:47:48;;;;;;;1999.90;999.90;;;;;;;17.01;72.19;101340.38;15809827;28;20064;-59
2021/09/03 21:55:22;;;;;;;1999.90;999.90;;;;;;;16.88;72.41;101342.47;15826505;28;20041;-61
2021/09/03 22:02:54;;;;;;;1999.90;999.90;;;;;;;16.92;72.02;101337.75;15803402;28;20040;-61
2021/09/03 22:10:28;;;;;;;1999.90;999.90;;;;;;;16.79;72.30;101344.63;15837204;28;20048;-59
2021/09/03 22:18:02;;;;;;;1999.90;999.90;;;;;;;16.73;72.56;101337.59;15837516;28;20047;-59
2021/09/03 22:25:36;;;;;;;1999.90;999.90;;;;;;;16.66;72.67;101328.91;15850894;28;20350;-57
2021/09/03 22:33:08;;;;;;;1999.90;999.90;;;;;;;16.54;72.80;101335.41;15804390;28;20048;-60
2021/09/03 22:40:42;;;;;;;1999.90;999.90;;;;;;;16.44;72.49;101336.75;15788486;28;20086;-59
2021/09/03 22:48:14;;;;;;;1999.90;999.90;;;;;;;16.37;72.32;101330.94;15762010;28;20055;-60
2021/09/03 22:55:48;;;;;;;1999.90;999.90;;;;;;;16.26;72.25;101334.59;15755961;28;20048;-59
2021/09/03 23:03:20;;;;;;;1999.90;999.90;;;;;;;16.18;72.40;101330.75;15755904;28;20052;-61
2021/09/03 23:10:54;;;;;;;1999.90;999.90;;;;;;;15.98;73.24;101334.56;15793718;28;20128;-60
2021/09/03 23:18:26;;;;;;;1999.90;999.90;;;;;;;15.97;72.86;101328.09;15770434;28;20036;-60
2021/09/03 23:26:00;;;;;;;1999.90;999.90;;;;;;;15.96;72.79;101326.47;15752039;28;20075;-61
2021/09/03 23:33:32;;;;;;;;;;;;;;;16.01;72.68;101331.84;15757387;28;20044;-61
2021/09/03 23:41:07;;;;;;;1999.90;999.90;;;;;;;15.87;73.62;101320.97;15786202;28;20435;-58
2021/09/03 23:48:40;;;;;;;1999.90;999.90;;;;;;;15.81;74.07;101328.00;15783443;28;20493;-58
2021/09/03 23:56:14;;;;;;;1999.90;999.90;;;;;;;15.79;74.21;101323.91;15807008;28;20127;-60
